sensor_id;sensor_type;location;lat;lon;timestamp;pressure;altitude;pressure_sealevel;temperature;humidity
67457;BME280;54319;52.038;4.640;2022-10-16T00:00:41;100947.13;;;13.12;85.46
67457;BME280;54319;52.038;4.640;2022-10-16T00:03:10;100961.19;;;13.10;85.74
67457;BME280;54319;52.038;4.640;2022-10-16T00:05:41;100964.81;;;13.04;86.46
67457;BME280;54319;52.038;4.640;2022-10-16T00:08:11;100954.44;;;12.98;86.87
67457;BME280;54319;52.038;4.640;2022-10-16T00:10:38;100957.84;;;13.01;86.37
67457;BME280;54319;52.038;4.640;2022-10-16T00:13:06;100957.00;;;12.99;86.41
67457;BME280;54319;52.038;4.640;2022-10-16T00:15:34;100962.16;;;13.06;85.94
67457;BME280;54319;52.038;4.640;2022-10-16T00:18:02;100961.31;;;13.04;86.40
67457;BME280;54319;52.038;4.640;2022-10-16T00:20:29;100960.44;;;13.05;86.08
67457;BME280;54319;52.038;4.640;2022-10-16T00:22:58;100955.28;;;13.00;86.50
67457;BME280;54319;52.038;4.640;2022-10-16T00:25:26;100956.09;;;13.02;86.27
67457;BME280;54319;52.038;4.640;2022-10-16T00:27:53;100960.53;;;13.00;86.26
67457;BME280;54319;52.038;4.640;2022-10-16T00:30:20;100951.63;;;13.06;86.08
67457;BME280;54319;52.038;4.640;2022-10-16T00:32:48;100949.72;;;13.14;85.21
67457;BME280;54319;52.038;4.640;2022-10-16T00:35:15;100947.00;;;13.18;84.78
67457;BME280;54319;52.038;4.640;2022-10-16T00:37:42;100947.91;;;13.17;85.37
67457;BME280;54319;52.038;4.640;2022-10-16T00:40:09;100939.94;;;13.20;85.24
67457;BME280;54319;52.038;4.640;2022-10-16T00:42:38;100951.28;;;13.24;85.29
67457;BME280;54319;52.038;4.640;2022-10-16T00:45:07;100950.34;;;13.27;85.49
67457;BME280;54319;52.038;4.640;2022-10-16T00:47:38;100946.88;;;13.25;85.81
67457;BME280;54319;52.038;4.640;2022-10-16T00:50:08;100951.22;;;13.27;86.15
67457;BME280;54319;52.038;4.640;2022-10-16T00:52:39;100941.47;;;13.32;86.02
67457;BME280;54319;52.038;4.640;2022-10-16T00:55:09;100953.84;;;13.29;86.77
67457;BME280;54319;52.038;4.640;2022-10-16T00:57:38;100947.81;;;13.22;87.43
67457;BME280;54319;52.038;4.640;2022-10-16T01:00:08;100947.69;;;13.28;87.46
67457;BME280;54319;52.038;4.640;2022-10-16T01:02:36;100957.31;;;13.31;87.55
67457;BME280;54319;52.038;4.640;2022-10-16T01:05:03;100954.69;;;13.28;87.63
67457;BME280;54319;52.038;4.640;2022-10-16T01:07:39;100945.31;;;13.14;89.23
67457;BME280;54319;52.038;4.640;2022-10-16T01:10:17;100944.38;;;13.17;89.18
67457;BME280;54319;52.038;4.640;2022-10-16T01:12:55;100939.31;;;13.09;90.09
67457;BME280;54319;52.038;4.640;2022-10-16T01:15:27;100940.25;;;13.05;90.41
67457;BME280;54319;52.038;4.640;2022-10-16T01:17:59;100944.66;;;13.05;90.70
67457;BME280;54319;52.038;4.640;2022-10-16T01:20:29;100946.50;;;12.99;91.14
67457;BME280;54319;52.038;4.640;2022-10-16T01:23:06;100951.00;;;12.93;92.40
67457;BME280;54319;52.038;4.640;2022-10-16T01:25:50;100958.88;;;12.94;92.40
67457;BME280;54319;52.038;4.640;2022-10-16T01:28:23;100954.56;;;12.89;93.14
67457;BME280;54319;52.038;4.640;2022-10-16T01:30:53;100948.53;;;12.85;93.26
67457;BME280;54319;52.038;4.640;2022-10-16T01:33:27;100945.16;;;12.78;94.39
67457;BME280;54319;52.038;4.640;2022-10-16T01:36:01;100956.69;;;12.71;95.55
67457;BME280;54319;52.038;4.640;2022-10-16T01:38:31;100970.63;;;12.73;95.43
67457;BME280;54319;52.038;4.640;2022-10-16T01:41:04;100971.53;;;12.72;95.49
67457;BME280;54319;52.038;4.640;2022-10-16T01:43:38;100974.31;;;12.65;95.83
67457;BME280;54319;52.038;4.640;2022-10-16T01:46:07;100971.03;;;12.52;96.86
67457;BME280;54319;52.038;4.640;2022-10-16T01:48:35;100972.00;;;12.46;97.13
67457;BME280;54319;52.038;4.640;2022-10-16T01:51:05;100965.91;;;12.43;97.23
67457;BME280;54319;52.038;4.640;2022-10-16T01:53:33;100965.22;;;12.33;97.69
67457;BME280;54319;52.038;4.640;2022-10-16T01:56:03;100967.75;;;12.37;97.62
67457;BME280;54319;52.038;4.640;2022-10-16T01:58:34;100973.94;;;12.35;97.58
67457;BME280;54319;52.038;4.640;2022-10-16T02:01:04;100968.69;;;12.35;97.74
67457;BME280;54319;52.038;4.640;2022-10-16T02:03:34;100981.00;;;12.31;97.97
67457;BME280;54319;52.038;4.640;2022-10-16T02:06:02;100980.91;;;12.36;97.73
67457;BME280;54319;52.038;4.640;2022-10-16T02:08:29;100987.97;;;12.34;97.64
67457;BME280;54319;52.038;4.640;2022-10-16T02:11:00;100984.53;;;12.29;98.30
67457;BME280;54319;52.038;4.640;2022-10-16T02:13:30;100985.31;;;12.35;97.98
67457;BME280;54319;52.038;4.640;2022-10-16T02:16:03;100988.88;;;12.31;98.22
67457;BME280;54319;52.038;4.640;2022-10-16T02:18:30;100994.19;;;12.28;98.57
67457;BME280;54319;52.038;4.640;2022-10-16T02:20:59;100989.84;;;12.26;98.92
67457;BME280;54319;52.038;4.640;2022-10-16T02:23:35;100985.47;;;12.25;99.03
67457;BME280;54319;52.038;4.640;2022-10-16T02:26:07;100989.78;;;12.29;98.87
67457;BME280;54319;52.038;4.640;2022-10-16T02:28:39;100980.13;;;12.31;98.77
67457;BME280;54319;52.038;4.640;2022-10-16T02:31:11;100988.94;;;12.28;98.83
67457;BME280;54319;52.038;4.640;2022-10-16T02:33:43;100986.31;;;12.27;99.23
67457;BME280;54319;52.038;4.640;2022-10-16T02:36:12;100992.41;;;12.29;98.86
67457;BME280;54319;52.038;4.640;2022-10-16T02:38:42;100995.91;;;12.31;98.84
67457;BME280;54319;52.038;4.640;2022-10-16T02:41:11;100989.78;;;12.29;99.05
67457;BME280;54319;52.038;4.640;2022-10-16T02:43:37;100986.25;;;12.31;98.84
67457;BME280;54319;52.038;4.640;2022-10-16T02:46:04;100989.75;;;12.32;98.80
67457;BME280;54319;52.038;4.640;2022-10-16T02:48:32;100987.94;;;12.35;98.48
67457;BME280;54319;52.038;4.640;2022-10-16T02:51:00;100992.28;;;12.38;98.38
67457;BME280;54319;52.038;4.640;2022-10-16T02:53:27;100990.63;;;12.34;98.56
67457;BME280;54319;52.038;4.640;2022-10-16T02:55:53;100986.31;;;12.28;98.98
67457;BME280;54319;52.038;4.640;2022-10-16T02:58:20;100985.41;;;12.29;98.91
67457;BME280;54319;52.038;4.640;2022-10-16T03:00:49;100978.44;;;12.27;98.86
67457;BME280;54319;52.038;4.640;2022-10-16T03:03:16;100988.06;;;12.28;98.72
67457;BME280;54319;52.038;4.640;2022-10-16T03:05:44;100980.34;;;12.18;99.47
67457;BME280;54319;52.038;4.640;2022-10-16T03:08:12;100982.13;;;12.15;99.61
67457;BME280;54319;52.038;4.640;2022-10-16T03:10:40;100997.03;;;12.14;99.62
67457;BME280;54319;52.038;4.640;2022-10-16T03:13:08;100997.97;;;12.10;100.00
67457;BME280;54319;52.038;4.640;2022-10-16T03:15:34;101001.47;;;12.09;100.00
67457;BME280;54319;52.038;4.640;2022-10-16T03:18:01;101004.13;;;12.08;100.00
67457;BME280;54319;52.038;4.640;2022-10-16T03:20:28;101009.31;;;12.12;100.00
67457;BME280;54319;52.038;4.640;2022-10-16T03:22:56;101004.09;;;12.11;100.00
67457;BME280;54319;52.038;4.640;2022-10-16T03:25:23;101008.41;;;12.13;100.00
67457;BME280;54319;52.038;4.640;2022-10-16T03:27:50;101016.22;;;12.20;100.00
67457;BME280;54319;52.038;4.640;2022-10-16T03:30:17;101005.69;;;12.21;100.00
67457;BME280;54319;52.038;4.640;2022-10-16T03:32:44;101009.16;;;12.23;100.00
67457;BME280;54319;52.038;4.640;2022-10-16T03:35:11;101022.31;;;12.23;100.00
67457;BME280;54319;52.038;4.640;2022-10-16T03:37:38;101031.91;;;12.24;100.00
67457;BME280;54319;52.038;4.640;2022-10-16T03:40:07;101023.09;;;12.27;100.00
67457;BME280;54319;52.038;4.640;2022-10-16T03:42:35;101021.41;;;12.24;100.00
67457;BME280;54319;52.038;4.640;2022-10-16T03:45:01;101020.47;;;12.27;100.00
67457;BME280;54319;52.038;4.640;2022-10-16T03:47:28;101020.47;;;12.28;100.00
67457;BME280;54319;52.038;4.640;2022-10-16T03:49:55;101020.47;;;12.27;100.00
67457;BME280;54319;52.038;4.640;2022-10-16T03:52:23;101026.59;;;12.27;100.00
67457;BME280;54319;52.038;4.640;2022-10-16T03:54:49;101023.94;;;12.30;100.00
67457;BME280;54319;52.038;4.640;2022-10-16T03:57:18;101031.75;;;12.35;100.00
67457;BME280;54319;52.038;4.640;2022-10-16T03:59:46;101042.25;;;12.36;100.00
67457;BME280;54319;52.038;4.640;2022-10-16T04:02:13;101035.22;;;12.35;100.00
67457;BME280;54319;52.038;4.640;2022-10-16T04:04:40;101044.03;;;12.33;100.00
67457;BME280;54319;52.038;4.640;2022-10-16T04:07:07;101042.41;;;12.26;100.00
67457;BME280;54319;52.038;4.640;2022-10-16T04:09:33;101046.84;;;12.21;100.00
67457;BME280;54319;52.038;4.640;2022-10-16T04:12:00;101052.06;;;12.24;100.00
67457;BME280;54319;52.038;4.640;2022-10-16T04:14:28;101052.06;;;12.22;100.00
67457;BME280;54319;52.038;4.640;2022-10-16T04:16:55;101052.19;;;12.14;100.00
67457;BME280;54319;52.038;4.640;2022-10-16T04:19:22;101064.47;;;12.12;100.00
67457;BME280;54319;52.038;4.640;2022-10-16T04:21:49;101062.72;;;12.13;100.00
67457;BME280;54319;52.038;4.640;2022-10-16T04:24:16;101060.16;;;12.08;100.00
67457;BME280;54319;52.038;4.640;2022-10-16T04:26:43;101064.56;;;12.05;100.00
67457;BME280;54319;52.038;4.640;2022-10-16T04:29:10;101071.59;;;12.03;100.00
67457;BME280;54319;52.038;4.640;2022-10-16T04:31:38;101070.69;;;12.05;100.00
67457;BME280;54319;52.038;4.640;2022-10-16T04:34:05;101075.88;;;12.11;100.00
67457;BME280;54319;52.038;4.640;2022-10-16T04:36:32;101084.59;;;12.12;100.00
67457;BME280;54319;52.038;4.640;2022-10-16T04:39:01;101085.44;;;12.18;100.00
67457;BME280;54319;52.038;4.640;2022-10-16T04:41:28;101089.78;;;12.20;100.00
67457;BME280;54319;52.038;4.640;2022-10-16T04:43:56;101086.28;;;12.17;100.00
67457;BME280;54319;52.038;4.640;2022-10-16T04:46:23;101089.78;;;12.18;100.00
67457;BME280;54319;52.038;4.640;2022-10-16T04:48:51;101102.97;;;12.16;100.00
67457;BME280;54319;52.038;4.640;2022-10-16T04:51:19;101110.81;;;12.18;100.00
67457;BME280;54319;52.038;4.640;2022-10-16T04:53:45;101105.59;;;12.16;100.00
67457;BME280;54319;52.038;4.640;2022-10-16T04:56:12;101108.25;;;12.13;100.00
67457;BME280;54319;52.038;4.640;2022-10-16T04:58:40;101115.25;;;12.11;100.00
67457;BME280;54319;52.038;4.640;2022-10-16T05:01:07;101123.13;;;12.14;100.00
67457;BME280;54319;52.038;4.640;2022-10-16T05:03:34;101130.13;;;12.14;100.00
67457;BME280;54319;52.038;4.640;2022-10-16T05:06:02;101133.53;;;12.21;100.00
67457;BME280;54319;52.038;4.640;2022-10-16T05:08:31;101142.31;;;12.20;100.00
67457;BME280;54319;52.038;4.640;2022-10-16T05:10:58;101133.44;;;12.27;100.00
67457;BME280;54319;52.038;4.640;2022-10-16T05:13:26;101138.75;;;12.25;100.00
67457;BME280;54319;52.038;4.640;2022-10-16T05:15:53;101139.63;;;12.24;100.00
67457;BME280;54319;52.038;4.640;2022-10-16T05:18:20;101139.63;;;12.26;100.00
67457;BME280;54319;52.038;4.640;2022-10-16T05:20:47;101145.72;;;12.28;100.00
67457;BME280;54319;52.038;4.640;2022-10-16T05:23:15;101152.69;;;12.30;100.00
67457;BME280;54319;52.038;4.640;2022-10-16T05:25:42;101157.88;;;12.36;100.00
67457;BME280;54319;52.038;4.640;2022-10-16T05:28:09;101160.44;;;12.39;100.00
67457;BME280;54319;52.038;4.640;2022-10-16T05:30:37;101162.19;;;12.41;100.00
67457;BME280;54319;52.038;4.640;2022-10-16T05:33:04;101168.41;;;12.33;100.00
67457;BME280;54319;52.038;4.640;2022-10-16T05:35:31;101172.00;;;12.28;100.00
67457;BME280;54319;52.038;4.640;2022-10-16T05:37:59;101166.75;;;12.25;100.00
67457;BME280;54319;52.038;4.640;2022-10-16T05:40:27;101175.53;;;12.24;100.00
67457;BME280;54319;52.038;4.640;2022-10-16T05:42:55;101175.53;;;12.24;100.00
67457;BME280;54319;52.038;4.640;2022-10-16T05:45:22;101176.47;;;12.21;100.00
67457;BME280;54319;52.038;4.640;2022-10-16T05:47:49;101184.34;;;12.20;100.00
67457;BME280;54319;52.038;4.640;2022-10-16T05:50:16;101176.47;;;12.20;100.00
67457;BME280;54319;52.038;4.640;2022-10-16T05:52:43;101183.44;;;12.22;100.00
67457;BME280;54319;52.038;4.640;2022-10-16T05:55:10;101186.06;;;12.21;100.00
67457;BME280;54319;52.038;4.640;2022-10-16T05:57:39;101181.78;;;12.16;100.00
67457;BME280;54319;52.038;4.640;2022-10-16T06:00:06;101182.63;;;12.15;100.00
67457;BME280;54319;52.038;4.640;2022-10-16T06:02:34;101185.25;;;12.17;100.00
67457;BME280;54319;52.038;4.640;2022-10-16T06:05:00;101183.50;;;12.16;100.00
67457;BME280;54319;52.038;4.640;2022-10-16T06:07:27;101199.31;;;12.14;100.00
67457;BME280;54319;52.038;4.640;2022-10-16T06:09:54;101197.53;;;12.16;100.00
67457;BME280;54319;52.038;4.640;2022-10-16T06:12:21;101195.78;;;12.15;100.00
67457;BME280;54319;52.038;4.640;2022-10-16T06:14:49;101201.84;;;12.21;100.00
67457;BME280;54319;52.038;4.640;2022-10-16T06:17:16;101198.38;;;12.18;100.00
67457;BME280;54319;52.038;4.640;2022-10-16T06:19:43;101197.47;;;12.20;100.00
67457;BME280;54319;52.038;4.640;2022-10-16T06:22:10;101198.41;;;12.17;100.00
67457;BME280;54319;52.038;4.640;2022-10-16T06:24:36;101208.00;;;12.18;100.00
67457;BME280;54319;52.038;4.640;2022-10-16T06:27:04;101207.13;;;12.17;100.00
67457;BME280;54319;52.038;4.640;2022-10-16T06:29:31;101208.00;;;12.20;100.00
67457;BME280;54319;52.038;4.640;2022-10-16T06:31:59;101211.47;;;12.22;100.00
67457;BME280;54319;52.038;4.640;2022-10-16T06:34:27;101213.19;;;12.24;100.00
67457;BME280;54319;52.038;4.640;2022-10-16T06:36:54;101211.41;;;12.26;100.00
67457;BME280;54319;52.038;4.640;2022-10-16T06:39:21;101215.75;;;12.29;100.00
67457;BME280;54319;52.038;4.640;2022-10-16T06:41:48;101215.75;;;12.29;100.00
67457;BME280;54319;52.038;4.640;2022-10-16T06:44:14;101221.06;;;12.26;100.00
67457;BME280;54319;52.038;4.640;2022-10-16T06:46:42;101230.66;;;12.28;100.00
67457;BME280;54319;52.038;4.640;2022-10-16T06:49:10;101236.75;;;12.32;100.00
67457;BME280;54319;52.038;4.640;2022-10-16T06:51:37;101236.72;;;12.35;100.00
67457;BME280;54319;52.038;4.640;2022-10-16T06:54:06;101251.63;;;12.34;100.00
67457;BME280;54319;52.038;4.640;2022-10-16T06:56:33;101256.81;;;12.36;100.00
67457;BME280;54319;52.038;4.640;2022-10-16T06:59:06;101245.41;;;12.40;100.00
67457;BME280;54319;52.038;4.640;2022-10-16T07:01:34;101261.09;;;12.45;100.00
67457;BME280;54319;52.038;4.640;2022-10-16T07:04:00;101267.16;;;12.53;99.52
67457;BME280;54319;52.038;4.640;2022-10-16T07:06:31;101264.50;;;12.54;99.95
67457;BME280;54319;52.038;4.640;2022-10-16T07:09:01;101274.19;;;12.51;100.00
67457;BME280;54319;52.038;4.640;2022-10-16T07:11:31;101277.72;;;12.47;100.00
67457;BME280;54319;52.038;4.640;2022-10-16T07:13:58;101282.16;;;12.43;100.00
67457;BME280;54319;52.038;4.640;2022-10-16T07:16:27;101287.44;;;12.40;100.00
67457;BME280;54319;52.038;4.640;2022-10-16T07:18:55;101292.81;;;12.34;100.00
67457;BME280;54319;52.038;4.640;2022-10-16T07:21:25;101300.69;;;12.31;100.00
67457;BME280;54319;52.038;4.640;2022-10-16T07:23:56;101305.78;;;12.45;100.00
67457;BME280;54319;52.038;4.640;2022-10-16T07:26:23;101311.94;;;12.44;100.00
67457;BME280;54319;52.038;4.640;2022-10-16T07:28:50;101315.44;;;12.46;100.00
67457;BME280;54319;52.038;4.640;2022-10-16T07:31:19;101329.38;;;12.52;100.00
67457;BME280;54319;52.038;4.640;2022-10-16T07:33:47;101332.78;;;12.61;100.00
67457;BME280;54319;52.038;4.640;2022-10-16T07:36:18;101337.09;;;12.66;100.00
67457;BME280;54319;52.038;4.640;2022-10-16T07:38:45;101340.13;;;13.04;100.00
67457;BME280;54319;52.038;4.640;2022-10-16T07:41:15;101342.41;;;13.87;96.37
67457;BME280;54319;52.038;4.640;2022-10-16T07:43:45;101349.47;;;14.35;93.53
67457;BME280;54319;52.038;4.640;2022-10-16T07:46:13;101354.94;;;14.26;92.08
67457;BME280;54319;52.038;4.640;2022-10-16T07:48:40;101354.44;;;14.03;92.95
67457;BME280;54319;52.038;4.640;2022-10-16T07:51:11;101361.78;;;13.85;94.69
67457;BME280;54319;52.038;4.640;2022-10-16T07:53:42;101364.66;;;13.71;96.00
67457;BME280;54319;52.038;4.640;2022-10-16T07:56:10;101361.94;;;13.75;96.33
67457;BME280;54319;52.038;4.640;2022-10-16T07:58:40;101373.91;;;13.95;95.45
67457;BME280;54319;52.038;4.640;2022-10-16T08:01:09;101374.50;;;14.12;94.38
67457;BME280;54319;52.038;4.640;2022-10-16T08:03:35;101378.00;;;14.13;93.85
67457;BME280;54319;52.038;4.640;2022-10-16T08:06:08;101383.53;;;13.96;94.65
67457;BME280;54319;52.038;4.640;2022-10-16T08:08:39;101392.44;;;13.90;95.19
67457;BME280;54319;52.038;4.640;2022-10-16T08:11:21;101397.78;;;13.86;95.64
67457;BME280;54319;52.038;4.640;2022-10-16T08:13:56;101405.78;;;13.79;95.84
67457;BME280;54319;52.038;4.640;2022-10-16T08:16:26;101410.97;;;13.82;95.91
67457;BME280;54319;52.038;4.640;2022-10-16T08:18:58;101407.31;;;13.93;95.73
67457;BME280;54319;52.038;4.640;2022-10-16T08:21:25;101409.84;;;13.99;95.08
67457;BME280;54319;52.038;4.640;2022-10-16T08:23:53;101415.91;;;14.06;94.89
67457;BME280;54319;52.038;4.640;2022-10-16T08:26:21;101409.78;;;14.03;95.03
67457;BME280;54319;52.038;4.640;2022-10-16T08:28:49;101418.47;;;14.09;94.56
67457;BME280;54319;52.038;4.640;2022-10-16T08:31:22;101421.88;;;14.15;94.04
67457;BME280;54319;52.038;4.640;2022-10-16T08:33:49;101429.75;;;14.18;93.40
67457;BME280;54319;52.038;4.640;2022-10-16T08:36:17;101423.47;;;14.26;93.33
67457;BME280;54319;52.038;4.640;2022-10-16T08:38:47;101431.34;;;14.27;93.04
67457;BME280;54319;52.038;4.640;2022-10-16T08:41:23;101437.31;;;14.38;92.33
67457;BME280;54319;52.038;4.640;2022-10-16T08:44:13;101437.88;;;14.57;91.60
67457;BME280;54319;52.038;4.640;2022-10-16T08:46:51;101448.28;;;14.65;91.51
67457;BME280;54319;52.038;4.640;2022-10-16T08:49:20;101455.19;;;14.72;91.09
67457;BME280;54319;52.038;4.640;2022-10-16T08:51:50;101458.59;;;14.77;89.97
67457;BME280;54319;52.038;4.640;2022-10-16T08:54:26;101454.81;;;14.91;89.60
67457;BME280;54319;52.038;4.640;2022-10-16T08:57:07;101465.97;;;15.06;89.23
67457;BME280;54319;52.038;4.640;2022-10-16T08:59:36;101460.72;;;15.05;89.10
67457;BME280;54319;52.038;4.640;2022-10-16T09:02:20;101468.63;;;15.06;88.76
67457;BME280;54319;52.038;4.640;2022-10-16T09:05:02;101480.69;;;15.18;88.94
67457;BME280;54319;52.038;4.640;2022-10-16T09:07:32;101473.69;;;15.17;88.32
67457;BME280;54319;52.038;4.640;2022-10-16T09:10:24;101476.13;;;15.26;88.37
67457;BME280;54319;52.038;4.640;2022-10-16T09:13:09;101482.25;;;15.29;88.52
67457;BME280;54319;52.038;4.640;2022-10-16T09:15:47;101492.69;;;15.35;87.59
67457;BME280;54319;52.038;4.640;2022-10-16T09:18:27;101485.75;;;15.29;87.73
67457;BME280;54319;52.038;4.640;2022-10-16T09:21:15;101483.00;;;15.34;87.21
67457;BME280;54319;52.038;4.640;2022-10-16T09:23:47;101492.50;;;15.42;86.75
67457;BME280;54319;52.038;4.640;2022-10-16T09:26:15;101489.78;;;15.45;86.28
67457;BME280;54319;52.038;4.640;2022-10-16T09:28:47;101486.16;;;15.53;85.36
67457;BME280;54319;52.038;4.640;2022-10-16T09:31:18;101494.72;;;15.62;85.34
67457;BME280;54319;52.038;4.640;2022-10-16T09:33:52;101500.72;;;15.72;85.18
67457;BME280;54319;52.038;4.640;2022-10-16T09:36:23;101489.03;;;15.82;84.67
67457;BME280;54319;52.038;4.640;2022-10-16T09:39:02;101493.03;;;16.00;84.71
67457;BME280;54319;52.038;4.640;2022-10-16T09:41:30;101486.66;;;16.09;83.73
67457;BME280;54319;52.038;4.640;2022-10-16T09:44:03;101491.78;;;16.15;82.53
67457;BME280;54319;52.038;4.640;2022-10-16T09:46:36;101497.16;;;16.12;81.76
67457;BME280;54319;52.038;4.640;2022-10-16T09:49:21;101505.63;;;16.26;81.61
67457;BME280;54319;52.038;4.640;2022-10-16T09:51:49;101502.94;;;16.28;80.00
67457;BME280;54319;52.038;4.640;2022-10-16T09:54:17;101507.75;;;16.12;79.13
67457;BME280;54319;52.038;4.640;2022-10-16T09:56:46;101498.91;;;16.13;79.68
67457;BME280;54319;52.038;4.640;2022-10-16T09:59:23;101500.03;;;16.03;80.62
67457;BME280;54319;52.038;4.640;2022-10-16T10:02:09;101504.78;;;15.87;81.86
67457;BME280;54319;52.038;4.640;2022-10-16T10:04:41;101498.59;;;15.88;82.99
67457;BME280;54319;52.038;4.640;2022-10-16T10:07:18;101506.66;;;15.82;81.30
67457;BME280;54319;52.038;4.640;2022-10-16T10:09:49;101506.63;;;15.83;81.11
67457;BME280;54319;52.038;4.640;2022-10-16T10:12:19;101517.38;;;15.76;80.46
67457;BME280;54319;52.038;4.640;2022-10-16T10:15:07;101522.63;;;15.77;79.11
67457;BME280;54319;52.038;4.640;2022-10-16T10:17:46;101513.34;;;15.98;79.12
67457;BME280;54319;52.038;4.640;2022-10-16T10:20:23;101519.16;;;16.14;78.36
67457;BME280;54319;52.038;4.640;2022-10-16T10:22:51;101535.19;;;16.06;77.54
67457;BME280;54319;52.038;4.640;2022-10-16T10:25:41;101533.50;;;16.02;76.63
67457;BME280;54319;52.038;4.640;2022-10-16T10:28:21;101545.34;;;15.84;76.93
67457;BME280;54319;52.038;4.640;2022-10-16T10:30:57;101551.69;;;15.77;75.07
67457;BME280;54319;52.038;4.640;2022-10-16T10:33:34;101551.84;;;15.68;73.95
67457;BME280;54319;52.038;4.640;2022-10-16T10:36:12;101547.38;;;15.73;73.98
67457;BME280;54319;52.038;4.640;2022-10-16T10:38:49;101557.84;;;15.76;73.62
67457;BME280;54319;52.038;4.640;2022-10-16T10:44:34;101558.84;;;15.71;72.42
67457;BME280;54319;52.038;4.640;2022-10-16T10:47:11;101561.22;;;15.84;72.86
67457;BME280;54319;52.038;4.640;2022-10-16T10:49:49;101559.25;;;15.94;72.85
67457;BME280;54319;52.038;4.640;2022-10-16T10:52:33;101566.03;;;16.06;70.87
67457;BME280;54319;52.038;4.640;2022-10-16T10:55:11;101564.44;;;15.99;71.62
67457;BME280;54319;52.038;4.640;2022-10-16T10:57:55;101571.34;;;16.04;71.70
67457;BME280;54319;52.038;4.640;2022-10-16T11:00:28;101568.59;;;16.09;70.66
67457;BME280;54319;52.038;4.640;2022-10-16T11:03:06;101572.06;;;16.13;70.85
67457;BME280;54319;52.038;4.640;2022-10-16T11:05:41;101576.25;;;16.23;70.59
67457;BME280;54319;52.038;4.640;2022-10-16T11:08:16;101575.44;;;16.19;69.94
67457;BME280;54319;52.038;4.640;2022-10-16T11:10:50;101579.53;;;16.33;69.88
67457;BME280;54319;52.038;4.640;2022-10-16T11:13:28;101583.41;;;16.55;67.81
67457;BME280;54319;52.038;4.640;2022-10-16T11:16:11;101596.34;;;16.67;66.97
67457;BME280;54319;52.038;4.640;2022-10-16T11:18:47;101591.91;;;16.68;67.09
67457;BME280;54319;52.038;4.640;2022-10-16T11:21:19;101585.41;;;16.83;66.58
67457;BME280;54319;52.038;4.640;2022-10-16T11:23:53;101580.63;;;16.97;65.39
67457;BME280;54319;52.038;4.640;2022-10-16T11:26:26;101590.84;;;17.11;65.48
67457;BME280;54319;52.038;4.640;2022-10-16T11:28:57;101587.78;;;17.28;64.04
67457;BME280;54319;52.038;4.640;2022-10-16T11:31:28;101598.84;;;17.42;65.28
67457;BME280;54319;52.038;4.640;2022-10-16T11:34:03;101594.53;;;17.69;63.63
67457;BME280;54319;52.038;4.640;2022-10-16T11:36:40;101606.63;;;17.80;60.90
67457;BME280;54319;52.038;4.640;2022-10-16T11:39:19;101599.66;;;17.76;61.16
67457;BME280;54319;52.038;4.640;2022-10-16T11:41:49;101596.25;;;17.72;62.26
67457;BME280;54319;52.038;4.640;2022-10-16T11:44:37;101605.56;;;17.54;59.92
67457;BME280;54319;52.038;4.640;2022-10-16T11:47:24;101605.38;;;17.62;60.67
67457;BME280;54319;52.038;4.640;2022-10-16T11:49:57;101609.13;;;17.53;60.32
67457;BME280;54319;52.038;4.640;2022-10-16T11:52:30;101607.50;;;17.47;61.32
67457;BME280;54319;52.038;4.640;2022-10-16T11:55:08;101612.75;;;17.50;60.15
67457;BME280;54319;52.038;4.640;2022-10-16T11:57:47;101616.41;;;17.45;60.41
67457;BME280;54319;52.038;4.640;2022-10-16T12:00:23;101615.16;;;17.27;58.66
67457;BME280;54319;52.038;4.640;2022-10-16T12:03:00;101616.97;;;17.25;58.57
67457;BME280;54319;52.038;4.640;2022-10-16T12:05:38;101623.69;;;17.37;59.00
67457;BME280;54319;52.038;4.640;2022-10-16T12:08:13;101624.75;;;17.31;59.53
67457;BME280;54319;52.038;4.640;2022-10-16T12:10:44;101623.25;;;17.53;59.41
67457;BME280;54319;52.038;4.640;2022-10-16T12:13:33;101630.03;;;17.64;59.12
67457;BME280;54319;52.038;4.640;2022-10-16T12:16:20;101621.47;;;17.54;59.64
67457;BME280;54319;52.038;4.640;2022-10-16T12:18:49;101630.22;;;17.58;59.68
67457;BME280;54319;52.038;4.640;2022-10-16T12:21:30;101629.53;;;17.82;59.66
67457;BME280;54319;52.038;4.640;2022-10-16T12:23:58;101630.72;;;17.70;59.25
67457;BME280;54319;52.038;4.640;2022-10-16T12:26:29;101630.09;;;17.61;59.62
67457;BME280;54319;52.038;4.640;2022-10-16T12:29:14;101633.31;;;17.41;57.34
67457;BME280;54319;52.038;4.640;2022-10-16T12:31:49;101631.16;;;17.22;58.59
67457;BME280;54319;52.038;4.640;2022-10-16T12:34:25;101637.31;;;17.23;58.45
67457;BME280;54319;52.038;4.640;2022-10-16T12:37:08;101639.28;;;17.15;58.31
67457;BME280;54319;52.038;4.640;2022-10-16T12:39:36;101638.16;;;17.25;57.78
67457;BME280;54319;52.038;4.640;2022-10-16T12:42:21;101634.25;;;17.38;58.08
67457;BME280;54319;52.038;4.640;2022-10-16T12:44:49;101633.44;;;17.36;58.80
67457;BME280;54319;52.038;4.640;2022-10-16T12:47:22;101633.81;;;17.55;58.75
67457;BME280;54319;52.038;4.640;2022-10-16T12:49:51;101638.06;;;17.61;58.22
67457;BME280;54319;52.038;4.640;2022-10-16T12:52:29;101633.56;;;17.64;56.85
67457;BME280;54319;52.038;4.640;2022-10-16T12:55:01;101633.56;;;17.64;56.59
67457;BME280;54319;52.038;4.640;2022-10-16T12:57:41;101628.78;;;17.77;56.87
67457;BME280;54319;52.038;4.640;2022-10-16T13:00:19;101627.13;;;17.73;55.75
67457;BME280;54319;52.038;4.640;2022-10-16T13:02:57;101637.03;;;17.66;56.09
67457;BME280;54319;52.038;4.640;2022-10-16T13:05:38;101633.28;;;17.73;56.53
67457;BME280;54319;52.038;4.640;2022-10-16T13:08:25;101640.38;;;17.73;58.69